sensor_id;sensor_type;location;lat;lon;timestamp;P1;durP1;ratioP1;P2;durP2;ratioP2
68196;SDS011;55019;49.382;11.358;2023-02-19T00:01:08;4.45;;;3.22;;
68196;SDS011;55019;49.382;11.358;2023-02-19T00:03:36;3.53;;;2.55;;
68196;SDS011;55019;49.382;11.358;2023-02-19T00:06:06;5.15;;;3.65;;
68196;SDS011;55019;49.382;11.358;2023-02-19T00:08:33;4.68;;;3.08;;
68196;SDS011;55019;49.382;11.358;2023-02-19T00:11:04;3.33;;;2.65;;
68196;SDS011;55019;49.382;11.358;2023-02-19T00:13:34;3.28;;;2.40;;
68196;SDS011;55019;49.382;11.358;2023-02-19T00:16:11;4.32;;;2.33;;
68196;SDS011;55019;49.382;11.358;2023-02-19T00:18:38;4.25;;;2.70;;
68196;SDS011;55019;49.382;11.358;2023-02-19T00:21:04;4.07;;;2.78;;
68196;SDS011;55019;49.382;11.358;2023-02-19T00:23:30;4.38;;;2.80;;
68196;SDS011;55019;49.382;11.358;2023-02-19T00:25:56;4.28;;;2.47;;
68196;SDS011;55019;49.382;11.358;2023-02-19T00:28:25;3.92;;;2.60;;
68196;SDS011;55019;49.382;11.358;2023-02-19T00:30:51;3.28;;;2.40;;
68196;SDS011;55019;49.382;11.358;2023-02-19T00:33:17;2.78;;;2.10;;
68196;SDS011;55019;49.382;11.358;2023-02-19T00:35:42;2.75;;;2.30;;
68196;SDS011;55019;49.382;11.358;2023-02-19T00:38:08;2.50;;;1.80;;
68196;SDS011;55019;49.382;11.358;2023-02-19T00:40:33;2.67;;;2.20;;
68196;SDS011;55019;49.382;11.358;2023-02-19T00:42:58;3.50;;;2.10;;
68196;SDS011;55019;49.382;11.358;2023-02-19T00:45:24;2.92;;;2.03;;
68196;SDS011;55019;49.382;11.358;2023-02-19T00:47:49;2.90;;;2.05;;
68196;SDS011;55019;49.382;11.358;2023-02-19T00:50:15;3.08;;;2.20;;
68196;SDS011;55019;49.382;11.358;2023-02-19T00:52:40;2.95;;;2.38;;
68196;SDS011;55019;49.382;11.358;2023-02-19T00:55:06;2.55;;;1.70;;
68196;SDS011;55019;49.382;11.358;2023-02-19T00:57:31;3.15;;;2.33;;
68196;SDS011;55019;49.382;11.358;2023-02-19T00:59:57;2.20;;;1.90;;
68196;SDS011;55019;49.382;11.358;2023-02-19T01:02:22;3.17;;;2.00;;
68196;SDS011;55019;49.382;11.358;2023-02-19T01:04:47;2.95;;;2.13;;
68196;SDS011;55019;49.382;11.358;2023-02-19T01:07:13;3.58;;;2.00;;
68196;SDS011;55019;49.382;11.358;2023-02-19T01:09:38;3.13;;;2.70;;
68196;SDS011;55019;49.382;11.358;2023-02-19T01:12:04;2.70;;;2.17;;
68196;SDS011;55019;49.382;11.358;2023-02-19T01:14:30;3.05;;;2.08;;
68196;SDS011;55019;49.382;11.358;2023-02-19T01:16:56;2.65;;;1.95;;
68196;SDS011;55019;49.382;11.358;2023-02-19T01:19:21;3.17;;;2.28;;
68196;SDS011;55019;49.382;11.358;2023-02-19T01:21:46;3.35;;;2.03;;
68196;SDS011;55019;49.382;11.358;2023-02-19T01:24:12;3.22;;;2.28;;
68196;SDS011;55019;49.382;11.358;2023-02-19T01:26:37;3.38;;;2.20;;
68196;SDS011;55019;49.382;11.358;2023-02-19T01:29:03;2.75;;;1.88;;
68196;SDS011;55019;49.382;11.358;2023-02-19T01:31:29;3.85;;;2.50;;
68196;SDS011;55019;49.382;11.358;2023-02-19T01:33:56;3.47;;;2.33;;
68196;SDS011;55019;49.382;11.358;2023-02-19T01:36:24;3.47;;;2.63;;
68196;SDS011;55019;49.382;11.358;2023-02-19T01:38:50;3.85;;;2.30;;
68196;SDS011;55019;49.382;11.358;2023-02-19T01:41:17;3.28;;;2.30;;
68196;SDS011;55019;49.382;11.358;2023-02-19T01:46:33;3.83;;;2.72;;
68196;SDS011;55019;49.382;11.358;2023-02-19T01:49:09;3.63;;;2.42;;
68196;SDS011;55019;49.382;11.358;2023-02-19T01:51:45;3.53;;;2.42;;
68196;SDS011;55019;49.382;11.358;2023-02-19T01:54:14;4.10;;;2.40;;
68196;SDS011;55019;49.382;11.358;2023-02-19T01:56:42;3.25;;;2.10;;
68196;SDS011;55019;49.382;11.358;2023-02-19T01:59:09;4.05;;;2.65;;
68196;SDS011;55019;49.382;11.358;2023-02-19T02:04:17;4.97;;;3.22;;
68196;SDS011;55019;49.382;11.358;2023-02-19T02:06:47;3.85;;;2.38;;
68196;SDS011;55019;49.382;11.358;2023-02-19T02:09:15;4.95;;;2.72;;
68196;SDS011;55019;49.382;11.358;2023-02-19T02:12:01;3.65;;;2.40;;
68196;SDS011;55019;49.382;11.358;2023-02-19T02:14:28;4.68;;;2.55;;
68196;SDS011;55019;49.382;11.358;2023-02-19T02:22:28;3.65;;;2.15;;
68196;SDS011;55019;49.382;11.358;2023-02-19T02:28:06;3.05;;;2.08;;
68196;SDS011;55019;49.382;11.358;2023-02-19T02:31:05;3.97;;;2.30;;
68196;SDS011;55019;49.382;11.358;2023-02-19T02:38:35;3.72;;;1.92;;
68196;SDS011;55019;49.382;11.358;2023-02-19T02:41:04;3.33;;;2.00;;
68196;SDS011;55019;49.382;11.358;2023-02-19T02:43:30;2.45;;;1.80;;
68196;SDS011;55019;49.382;11.358;2023-02-19T02:45:56;2.40;;;1.58;;
68196;SDS011;55019;49.382;11.358;2023-02-19T02:48:26;2.17;;;1.42;;
68196;SDS011;55019;49.382;11.358;2023-02-19T02:54:03;1.88;;;1.42;;
68196;SDS011;55019;49.382;11.358;2023-02-19T02:56:47;2.10;;;1.45;;
68196;SDS011;55019;49.382;11.358;2023-02-19T02:59:14;1.75;;;1.20;;
68196;SDS011;55019;49.382;11.358;2023-02-19T03:01:50;2.00;;;1.45;;
68196;SDS011;55019;49.382;11.358;2023-02-19T03:04:56;2.50;;;1.15;;
68196;SDS011;55019;49.382;11.358;2023-02-19T03:08:05;1.90;;;1.27;;
68196;SDS011;55019;49.382;11.358;2023-02-19T03:10:47;1.55;;;1.00;;
68196;SDS011;55019;49.382;11.358;2023-02-19T03:13:20;1.83;;;1.20;;
68196;SDS011;55019;49.382;11.358;2023-02-19T03:16:10;1.70;;;1.13;;
68196;SDS011;55019;49.382;11.358;2023-02-19T03:19:00;1.58;;;0.90;;
68196;SDS011;55019;49.382;11.358;2023-02-19T03:22:06;2.00;;;1.20;;
68196;SDS011;55019;49.382;11.358;2023-02-19T03:24:34;1.65;;;0.98;;
68196;SDS011;55019;49.382;11.358;2023-02-19T03:27:23;1.30;;;0.93;;
68196;SDS011;55019;49.382;11.358;2023-02-19T03:29:52;1.85;;;1.20;;
68196;SDS011;55019;49.382;11.358;2023-02-19T03:32:24;1.50;;;0.80;;
68196;SDS011;55019;49.382;11.358;2023-02-19T03:34:55;2.00;;;1.00;;
68196;SDS011;55019;49.382;11.358;2023-02-19T03:37:37;1.80;;;1.20;;
68196;SDS011;55019;49.382;11.358;2023-02-19T03:40:08;2.05;;;1.33;;
68196;SDS011;55019;49.382;11.358;2023-02-19T03:42:42;1.42;;;1.20;;
68196;SDS011;55019;49.382;11.358;2023-02-19T03:53:08;1.50;;;1.02;;
68196;SDS011;55019;49.382;11.358;2023-02-19T03:58:27;1.55;;;1.00;;
68196;SDS011;55019;49.382;11.358;2023-02-19T04:01:03;2.40;;;1.10;;
68196;SDS011;55019;49.382;11.358;2023-02-19T04:03:39;1.30;;;0.90;;
68196;SDS011;55019;49.382;11.358;2023-02-19T04:06:08;1.92;;;1.15;;
68196;SDS011;55019;49.382;11.358;2023-02-19T04:08:38;1.50;;;1.10;;
68196;SDS011;55019;49.382;11.358;2023-02-19T04:11:06;1.25;;;0.88;;
68196;SDS011;55019;49.382;11.358;2023-02-19T04:13:41;1.40;;;1.00;;
68196;SDS011;55019;49.382;11.358;2023-02-19T04:16:11;1.65;;;1.00;;
68196;SDS011;55019;49.382;11.358;2023-02-19T04:18:42;1.70;;;1.30;;
68196;SDS011;55019;49.382;11.358;2023-02-19T04:21:11;1.13;;;0.85;;
68196;SDS011;55019;49.382;11.358;2023-02-19T04:23:39;1.70;;;1.02;;
68196;SDS011;55019;49.382;11.358;2023-02-19T04:26:08;1.20;;;0.93;;
68196;SDS011;55019;49.382;11.358;2023-02-19T04:28:35;1.50;;;1.00;;
68196;SDS011;55019;49.382;11.358;2023-02-19T04:31:02;1.45;;;1.08;;
68196;SDS011;55019;49.382;11.358;2023-02-19T04:33:27;1.23;;;1.00;;
68196;SDS011;55019;49.382;11.358;2023-02-19T04:35:53;2.00;;;1.30;;
68196;SDS011;55019;49.382;11.358;2023-02-19T04:38:18;2.25;;;1.38;;
68196;SDS011;55019;49.382;11.358;2023-02-19T04:40:43;1.85;;;1.20;;
68196;SDS011;55019;49.382;11.358;2023-02-19T04:43:09;1.95;;;1.42;;
68196;SDS011;55019;49.382;11.358;2023-02-19T04:45:38;2.03;;;0.93;;
68196;SDS011;55019;49.382;11.358;2023-02-19T04:48:04;2.25;;;1.30;;
68196;SDS011;55019;49.382;11.358;2023-02-19T04:50:29;1.52;;;1.10;;
68196;SDS011;55019;49.382;11.358;2023-02-19T04:52:55;2.03;;;1.40;;
68196;SDS011;55019;49.382;11.358;2023-02-19T04:55:20;2.17;;;1.52;;
68196;SDS011;55019;49.382;11.358;2023-02-19T04:57:45;2.30;;;1.58;;
68196;SDS011;55019;49.382;11.358;2023-02-19T05:00:11;2.63;;;1.58;;
68196;SDS011;55019;49.382;11.358;2023-02-19T05:02:37;2.05;;;1.27;;
68196;SDS011;55019;49.382;11.358;2023-02-19T05:05:03;1.83;;;1.65;;
68196;SDS011;55019;49.382;11.358;2023-02-19T05:07:28;2.50;;;1.63;;
68196;SDS011;55019;49.382;11.358;2023-02-19T05:09:54;2.22;;;1.60;;
68196;SDS011;55019;49.382;11.358;2023-02-19T05:12:19;2.00;;;1.40;;
68196;SDS011;55019;49.382;11.358;2023-02-19T05:14:45;3.00;;;1.58;;
68196;SDS011;55019;49.382;11.358;2023-02-19T05:17:10;1.95;;;1.33;;
68196;SDS011;55019;49.382;11.358;2023-02-19T05:19:35;2.28;;;1.58;;
68196;SDS011;55019;49.382;11.358;2023-02-19T05:22:01;2.45;;;1.65;;
68196;SDS011;55019;49.382;11.358;2023-02-19T05:24:26;2.58;;;1.40;;
68196;SDS011;55019;49.382;11.358;2023-02-19T05:26:52;2.65;;;1.75;;
68196;SDS011;55019;49.382;11.358;2023-02-19T05:29:17;1.48;;;1.10;;
68196;SDS011;55019;49.382;11.358;2023-02-19T05:31:43;1.70;;;1.30;;
68196;SDS011;55019;49.382;11.358;2023-02-19T05:34:08;1.60;;;1.25;;
68196;SDS011;55019;49.382;11.358;2023-02-19T05:36:34;1.83;;;1.25;;
68196;SDS011;55019;49.382;11.358;2023-02-19T05:39:01;2.63;;;1.27;;
68196;SDS011;55019;49.382;11.358;2023-02-19T05:41:27;1.77;;;1.33;;
68196;SDS011;55019;49.382;11.358;2023-02-19T05:43:54;1.75;;;1.20;;
68196;SDS011;55019;49.382;11.358;2023-02-19T05:46:21;1.67;;;1.30;;
68196;SDS011;55019;49.382;11.358;2023-02-19T05:48:49;2.58;;;1.08;;
68196;SDS011;55019;49.382;11.358;2023-02-19T05:51:16;1.52;;;1.08;;
68196;SDS011;55019;49.382;11.358;2023-02-19T05:53:43;1.55;;;1.13;;
68196;SDS011;55019;49.382;11.358;2023-02-19T05:56:19;1.73;;;0.93;;
68196;SDS011;55019;49.382;11.358;2023-02-19T05:58:51;1.58;;;1.27;;
68196;SDS011;55019;49.382;11.358;2023-02-19T06:01:18;1.50;;;0.90;;
68196;SDS011;55019;49.382;11.358;2023-02-19T06:03:45;1.65;;;1.17;;
68196;SDS011;55019;49.382;11.358;2023-02-19T06:06:14;2.08;;;1.45;;
68196;SDS011;55019;49.382;11.358;2023-02-19T06:08:41;1.83;;;1.17;;
68196;SDS011;55019;49.382;11.358;2023-02-19T06:11:06;1.40;;;1.00;;
68196;SDS011;55019;49.382;11.358;2023-02-19T06:13:32;1.80;;;1.15;;
68196;SDS011;55019;49.382;11.358;2023-02-19T06:15:57;1.55;;;1.20;;
68196;SDS011;55019;49.382;11.358;2023-02-19T06:18:23;1.25;;;1.13;;
68196;SDS011;55019;49.382;11.358;2023-02-19T06:20:48;1.40;;;1.05;;
68196;SDS011;55019;49.382;11.358;2023-02-19T06:23:13;1.73;;;1.33;;
68196;SDS011;55019;49.382;11.358;2023-02-19T06:25:39;1.17;;;0.85;;
68196;SDS011;55019;49.382;11.358;2023-02-19T06:28:05;2.30;;;1.15;;
68196;SDS011;55019;49.382;11.358;2023-02-19T06:30:30;1.20;;;0.90;;
68196;SDS011;55019;49.382;11.358;2023-02-19T06:32:56;1.08;;;0.90;;
68196;SDS011;55019;49.382;11.358;2023-02-19T06:35:21;1.60;;;1.13;;
68196;SDS011;55019;49.382;11.358;2023-02-19T06:37:47;1.65;;;1.10;;
68196;SDS011;55019;49.382;11.358;2023-02-19T06:40:13;1.63;;;1.50;;
68196;SDS011;55019;49.382;11.358;2023-02-19T06:42:38;2.08;;;1.10;;
68196;SDS011;55019;49.382;11.358;2023-02-19T06:45:03;1.63;;;1.15;;
68196;SDS011;55019;49.382;11.358;2023-02-19T06:47:30;1.60;;;1.15;;
68196;SDS011;55019;49.382;11.358;2023-02-19T06:49:56;2.30;;;1.30;;
68196;SDS011;55019;49.382;11.358;2023-02-19T06:52:22;1.90;;;0.98;;
68196;SDS011;55019;49.382;11.358;2023-02-19T06:54:47;2.00;;;1.48;;
68196;SDS011;55019;49.382;11.358;2023-02-19T06:57:13;1.40;;;1.00;;
68196;SDS011;55019;49.382;11.358;2023-02-19T06:59:38;2.13;;;1.25;;
68196;SDS011;55019;49.382;11.358;2023-02-19T07:02:04;1.58;;;1.13;;
68196;SDS011;55019;49.382;11.358;2023-02-19T07:04:29;1.73;;;1.42;;
68196;SDS011;55019;49.382;11.358;2023-02-19T07:06:54;2.35;;;1.60;;
68196;SDS011;55019;49.382;11.358;2023-02-19T07:09:20;2.03;;;1.40;;
68196;SDS011;55019;49.382;11.358;2023-02-19T07:11:45;1.92;;;1.17;;
68196;SDS011;55019;49.382;11.358;2023-02-19T07:14:15;2.25;;;1.13;;
68196;SDS011;55019;49.382;11.358;2023-02-19T07:16:41;2.08;;;1.20;;
68196;SDS011;55019;49.382;11.358;2023-02-19T07:19:08;3.42;;;1.00;;
68196;SDS011;55019;49.382;11.358;2023-02-19T07:21:35;2.03;;;1.27;;
68196;SDS011;55019;49.382;11.358;2023-02-19T07:24:02;1.33;;;1.10;;
68196;SDS011;55019;49.382;11.358;2023-02-19T07:26:30;1.40;;;1.08;;
68196;SDS011;55019;49.382;11.358;2023-02-19T07:28:55;2.83;;;1.30;;
68196;SDS011;55019;49.382;11.358;2023-02-19T07:31:21;1.27;;;0.80;;
68196;SDS011;55019;49.382;11.358;2023-02-19T07:33:47;1.42;;;1.02;;
68196;SDS011;55019;49.382;11.358;2023-02-19T07:36:13;1.20;;;1.00;;
68196;SDS011;55019;49.382;11.358;2023-02-19T07:38:41;1.60;;;0.95;;
68196;SDS011;55019;49.382;11.358;2023-02-19T07:41:06;1.13;;;0.98;;
68196;SDS011;55019;49.382;11.358;2023-02-19T07:43:33;1.92;;;1.13;;
68196;SDS011;55019;49.382;11.358;2023-02-19T07:46:10;1.40;;;0.82;;
68196;SDS011;55019;49.382;11.358;2023-02-19T07:48:36;1.65;;;1.10;;
68196;SDS011;55019;49.382;11.358;2023-02-19T07:51:03;1.27;;;0.95;;
68196;SDS011;55019;49.382;11.358;2023-02-19T07:53:31;2.05;;;1.33;;
68196;SDS011;55019;49.382;11.358;2023-02-19T07:55:58;1.48;;;1.05;;
68196;SDS011;55019;49.382;11.358;2023-02-19T07:58:26;1.42;;;1.25;;
68196;SDS011;55019;49.382;11.358;2023-02-19T08:00:51;1.70;;;1.25;;
68196;SDS011;55019;49.382;11.358;2023-02-19T08:03:17;1.30;;;1.00;;
68196;SDS011;55019;49.382;11.358;2023-02-19T08:05:42;1.58;;;1.05;;
68196;SDS011;55019;49.382;11.358;2023-02-19T08:08:09;0.60;;;0.60;;
68196;SDS011;55019;49.382;11.358;2023-02-19T08:10:37;1.23;;;0.85;;
68196;SDS011;55019;49.382;11.358;2023-02-19T08:13:21;1.67;;;1.00;;
68196;SDS011;55019;49.382;11.358;2023-02-19T08:18:29;1.33;;;0.70;;
68196;SDS011;55019;49.382;11.358;2023-02-19T08:20:56;0.80;;;0.60;;
68196;SDS011;55019;49.382;11.358;2023-02-19T08:23:22;1.55;;;0.98;;
68196;SDS011;55019;49.382;11.358;2023-02-19T08:25:49;1.00;;;0.80;;
68196;SDS011;55019;49.382;11.358;2023-02-19T08:28:15;1.33;;;0.70;;
68196;SDS011;55019;49.382;11.358;2023-02-19T08:30:42;1.25;;;0.47;;
68196;SDS011;55019;49.382;11.358;2023-02-19T08:33:10;0.73;;;0.47;;
68196;SDS011;55019;49.382;11.358;2023-02-19T08:35:37;0.90;;;0.60;;
68196;SDS011;55019;49.382;11.358;2023-02-19T08:38:03;1.00;;;0.50;;
68196;SDS011;55019;49.382;11.358;2023-02-19T08:40:30;2.15;;;1.05;;
68196;SDS011;55019;49.382;11.358;2023-02-19T08:43:00;1.02;;;0.43;;
68196;SDS011;55019;49.382;11.358;2023-02-19T08:45:52;1.23;;;0.50;;
68196;SDS011;55019;49.382;11.358;2023-02-19T08:48:19;0.85;;;0.40;;
68196;SDS011;55019;49.382;11.358;2023-02-19T08:50:44;1.00;;;0.57;;
68196;SDS011;55019;49.382;11.358;2023-02-19T08:53:09;0.52;;;0.38;;
68196;SDS011;55019;49.382;11.358;2023-02-19T08:55:35;1.20;;;0.65;;
68196;SDS011;55019;49.382;11.358;2023-02-19T08:58:02;1.10;;;0.68;;
68196;SDS011;55019;49.382;11.358;2023-02-19T09:00:27;0.65;;;0.40;;
68196;SDS011;55019;49.382;11.358;2023-02-19T09:02:53;2.95;;;0.52;;
68196;SDS011;55019;49.382;11.358;2023-02-19T09:05:18;1.05;;;0.40;;
68196;SDS011;55019;49.382;11.358;2023-02-19T09:07:44;0.32;;;0.17;;
68196;SDS011;55019;49.382;11.358;2023-02-19T09:10:09;0.50;;;0.30;;
68196;SDS011;55019;49.382;11.358;2023-02-19T09:12:36;0.85;;;0.30;;
68196;SDS011;55019;49.382;11.358;2023-02-19T09:15:03;0.77;;;0.30;;
68196;SDS011;55019;49.382;11.358;2023-02-19T09:17:29;0.68;;;0.30;;
68196;SDS011;55019;49.382;11.358;2023-02-19T09:19:54;0.43;;;0.20;;
68196;SDS011;55019;49.382;11.358;2023-02-19T09:22:19;0.50;;;0.15;;
68196;SDS011;55019;49.382;11.358;2023-02-19T09:24:45;0.73;;;0.30;;
68196;SDS011;55019;49.382;11.358;2023-02-19T09:27:14;1.15;;;0.30;;
68196;SDS011;55019;49.382;11.358;2023-02-19T09:29:41;0.88;;;0.40;;
68196;SDS011;55019;49.382;11.358;2023-02-19T09:32:07;0.50;;;0.40;;
68196;SDS011;55019;49.382;11.358;2023-02-19T09:34:32;0.90;;;0.50;;
68196;SDS011;55019;49.382;11.358;2023-02-19T09:36:57;0.80;;;0.30;;
68196;SDS011;55019;49.382;11.358;2023-02-19T09:39:23;0.35;;;0.20;;
68196;SDS011;55019;49.382;11.358;2023-02-19T09:41:49;0.38;;;0.20;;
68196;SDS011;55019;49.382;11.358;2023-02-19T09:47:23;0.73;;;0.32;;
68196;SDS011;55019;49.382;11.358;2023-02-19T09:49:52;0.45;;;0.38;;
68196;SDS011;55019;49.382;11.358;2023-02-19T09:54:48;1.15;;;0.50;;
68196;SDS011;55019;49.382;11.358;2023-02-19T09:57:19;0.90;;;0.60;;
68196;SDS011;55019;49.382;11.358;2023-02-19T09:59:47;0.95;;;0.50;;
68196;SDS011;55019;49.382;11.358;2023-02-19T10:04:46;1.50;;;0.75;;
68196;SDS011;55019;49.382;11.358;2023-02-19T10:07:13;1.50;;;0.60;;
68196;SDS011;55019;49.382;11.358;2023-02-19T10:09:42;1.02;;;0.50;;
68196;SDS011;55019;49.382;11.358;2023-02-19T10:12:13;1.73;;;0.98;;
68196;SDS011;55019;49.382;11.358;2023-02-19T10:14:42;0.70;;;0.50;;
68196;SDS011;55019;49.382;11.358;2023-02-19T10:17:15;2.05;;;1.00;;
68196;SDS011;55019;49.382;11.358;2023-02-19T10:19:48;1.15;;;0.40;;
68196;SDS011;55019;49.382;11.358;2023-02-19T10:22:14;1.70;;;0.90;;
68196;SDS011;55019;49.382;11.358;2023-02-19T10:24:40;0.90;;;0.60;;
68196;SDS011;55019;49.382;11.358;2023-02-19T10:27:14;1.92;;;0.50;;
68196;SDS011;55019;49.382;11.358;2023-02-19T10:29:41;0.60;;;0.38;;
68196;SDS011;55019;49.382;11.358;2023-02-19T10:32:16;1.10;;;0.57;;
68196;SDS011;55019;49.382;11.358;2023-02-19T10:34:47;1.52;;;1.15;;
68196;SDS011;55019;49.382;11.358;2023-02-19T10:37:32;2.95;;;0.80;;
68196;SDS011;55019;49.382;11.358;2023-02-19T10:39:59;1.10;;;0.63;;
68196;SDS011;55019;49.382;11.358;2023-02-19T10:42:25;1.75;;;0.80;;
68196;SDS011;55019;49.382;11.358;2023-02-19T10:44:54;1.65;;;0.82;;
68196;SDS011;55019;49.382;11.358;2023-02-19T10:47:25;1.38;;;0.80;;
68196;SDS011;55019;49.382;11.358;2023-02-19T10:49:54;1.83;;;1.15;;
68196;SDS011;55019;49.382;11.358;2023-02-19T10:55:19;2.60;;;0.75;;
68196;SDS011;55019;49.382;11.358;2023-02-19T10:57:54;1.08;;;0.57;;
68196;SDS011;55019;49.382;11.358;2023-02-19T11:00:26;1.05;;;0.70;;
68196;SDS011;55019;49.382;11.358;2023-02-19T11:03:13;1.40;;;0.70;;
68196;SDS011;55019;49.382;11.358;2023-02-19T11:05:52;1.13;;;0.70;;
68196;SDS011;55019;49.382;11.358;2023-02-19T11:08:24;1.63;;;0.82;;
68196;SDS011;55019;49.382;11.358;2023-02-19T11:10:49;1.65;;;0.95;;
68196;SDS011;55019;49.382;11.358;2023-02-19T11:13:16;1.15;;;0.70;;
68196;SDS011;55019;49.382;11.358;2023-02-19T11:15:50;1.25;;;0.65;;
68196;SDS011;55019;49.382;11.358;2023-02-19T11:18:25;1.45;;;0.70;;
68196;SDS011;55019;49.382;11.358;2023-02-19T11:20:55;1.70;;;0.88;;
68196;SDS011;55019;49.382;11.358;2023-02-19T11:23:27;1.70;;;0.90;;
68196;SDS011;55019;49.382;11.358;2023-02-19T11:25:55;2.65;;;1.00;;
68196;SDS011;55019;49.382;11.358;2023-02-19T11:28:33;2.10;;;0.80;;
68196;SDS011;55019;49.382;11.358;2023-02-19T11:31:21;2.00;;;1.08;;
68196;SDS011;55019;49.382;11.358;2023-02-19T11:36:27;1.33;;;0.80;;
68196;SDS011;55019;49.382;11.358;2023-02-19T11:38:55;1.40;;;0.90;;
68196;SDS011;55019;49.382;11.358;2023-02-19T11:41:35;1.15;;;0.90;;
68196;SDS011;55019;49.382;11.358;2023-02-19T11:44:23;3.63;;;1.88;;
68196;SDS011;55019;49.382;11.358;2023-02-19T11:50:02;1.77;;;1.20;;
68196;SDS011;55019;49.382;11.358;2023-02-19T11:53:15;1.73;;;1.08;;
68196;SDS011;55019;49.382;11.358;2023-02-19T12:04:25;2.65;;;1.10;;
68196;SDS011;55019;49.382;11.358;2023-02-19T12:07:17;1.73;;;1.15;;
68196;SDS011;55019;49.382;11.358;2023-02-19T12:12:57;2.78;;;1.35;;
68196;SDS011;55019;49.382;11.358;2023-02-19T12:15:44;2.80;;;1.27;;
68196;SDS011;55019;49.382;11.358;2023-02-19T12:21:56;2.95;;;1.60;;
68196;SDS011;55019;49.382;11.358;2023-02-19T12:29:41;1.95;;;1.35;;
68196;SDS011;55019;49.382;11.358;2023-02-19T12:40:52;3.60;;;2.22;;
68196;SDS011;55019;49.382;11.358;2023-02-19T12:43:26;2.75;;;2.15;;
68196;SDS011;55019;49.382;11.358;2023-02-19T12:45:57;3.83;;;1.92;;
68196;SDS011;55019;49.382;11.358;2023-02-19T12:51:13;3.30;;;1.63;;
68196;SDS011;55019;49.382;11.358;2023-02-19T12:57:01;2.90;;;1.80;;
68196;SDS011;55019;49.382;11.358;2023-02-19T12:59:36;3.08;;;1.95;;
68196;SDS011;55019;49.382;11.358;2023-02-19T13:05:17;2.67;;;1.13;;
68196;SDS011;55019;49.382;11.358;2023-02-19T13:07:56;3.03;;;1.02;;
68196;SDS011;55019;49.382;11.358;2023-02-19T13:12:53;2.45;;;1.15;;
68196;SDS011;55019;49.382;11.358;2023-02-19T13:15:29;3.67;;;1.50;;
68196;SDS011;55019;49.382;11.358;2023-02-19T13:17:59;1.92;;;1.30;;
68196;SDS011;55019;49.382;11.358;2023-02-19T13:20:34;2.17;;;1.63;;
68196;SDS011;55019;49.382;11.358;2023-02-19T13:23:16;1.85;;;1.42;;
68196;SDS011;55019;49.382;11.358;2023-02-19T13:26:21;2.58;;;1.60;;
68196;SDS011;55019;49.382;11.358;2023-02-19T13:36:50;4.05;;;1.92;;
68196;SDS011;55019;49.382;11.358;2023-02-19T13:39:17;1.70;;;1.50;;
68196;SDS011;55019;49.382;11.358;2023-02-19T13:41:49;4.78;;;1.75;;
68196;SDS011;55019;49.382;11.358;2023-02-19T13:44:24;4.43;;;2.03;;
68196;SDS011;55019;49.382;11.358;2023-02-19T13:46:52;2.53;;;1.50;;
68196;SDS011;55019;49.382;11.358;2023-02-19T13:49:24;5.50;;;1.80;;
68196;SDS011;55019;49.382;11.358;2023-02-19T13:55:33;3.78;;;1.83;;
68196;SDS011;55019;49.382;11.358;2023-02-19T14:01:00;3.42;;;1.40;;
68196;SDS011;55019;49.382;11.358;2023-02-19T14:19:49;2.08;;;0.80;;
68196;SDS011;55019;49.382;11.358;2023-02-19T14:30:39;1.83;;;1.02;;
68196;SDS011;55019;49.382;11.358;2023-02-19T14:33:18;0.80;;;0.60;;
68196;SDS011;55019;49.382;11.358;2023-02-19T14:35:48;1.40;;;1.00;;
68196;SDS011;55019;49.382;11.358;2023-02-19T14:38:22;1.25;;;0.70;;
68196;SDS011;55019;49.382;11.358;2023-02-19T14:40:51;2.88;;;0.85;;
68196;SDS011;55019;49.382;11.358;2023-02-19T14:43:18;3.17;;;1.13;;
68196;SDS011;55019;49.382;11.358;2023-02-19T14:45:47;2.40;;;1.40;;
68196;SDS011;55019;49.382;11.358;2023-02-19T14:48:21;3.78;;;1.17;;
68196;SDS011;55019;49.382;11.358;2023-02-19T14:53:18;1.65;;;1.23;;
68196;SDS011;55019;49.382;11.358;2023-02-19T14:55:46;2.17;;;1.10;;
68196;SDS011;55019;49.382;11.358;2023-02-19T14:58:14;2.92;;;2.03;;
68196;SDS011;55019;49.382;11.358;2023-02-19T15:00:45;5.70;;;1.85;;
68196;SDS011;55019;49.382;11.358;2023-02-19T15:03:47;3.97;;;2.55;;
68196;SDS011;55019;49.382;11.358;2023-02-19T15:06:04;6.28;;;2.30;;
68196;SDS011;55019;49.382;11.358;2023-02-19T15:08:37;1.58;;;1.38;;
68196;SDS011;55019;49.382;11.358;2023-02-19T15:11:10;4.97;;;2.90;;
68196;SDS011;55019;49.382;11.358;2023-02-19T15:13:41;3.28;;;1.92;;
68196;SDS011;55019;49.382;11.358;2023-02-19T15:16:14;3.03;;;1.60;;
68196;SDS011;55019;49.382;11.358;2023-02-19T15:18:43;2.63;;;1.85;;
68196;SDS011;55019;49.382;11.358;2023-02-19T15:21:11;3.05;;;1.48;;
68196;SDS011;55019;49.382;11.358;2023-02-19T15:23:53;2.72;;;1.83;;
68196;SDS011;55019;49.382;11.358;2023-02-19T15:26:26;1.73;;;1.13;;
68196;SDS011;55019;49.382;11.358;2023-02-19T15:29:01;3.85;;;1.70;;
68196;SDS011;55019;49.382;11.358;2023-02-19T15:31:32;3.85;;;2.08;;
68196;SDS011;55019;49.382;11.358;2023-02-19T15:33:58;3.33;;;2.10;;
68196;SDS011;55019;49.382;11.358;2023-02-19T15:36:25;2.65;;;1.75;;
68196;SDS011;55019;49.382;11.358;2023-02-19T15:38:57;3.72;;;1.85;;
68196;SDS011;55019;49.382;11.358;2023-02-19T15:41:25;2.80;;;1.65;;
68196;SDS011;55019;49.382;11.358;2023-02-19T15:43:59;3.97;;;1.40;;
68196;SDS011;55019;49.382;11.358;2023-02-19T15:46:30;2.65;;;1.80;;
68196;SDS011;55019;49.382;11.358;2023-02-19T15:48:59;4.07;;;2.17;;
68196;SDS011;55019;49.382;11.358;2023-02-19T15:51:27;3.42;;;1.52;;
68196;SDS011;55019;49.382;11.358;2023-02-19T15:53:58;2.97;;;1.38;;
68196;SDS011;55019;49.382;11.358;2023-02-19T15:56:32;3.13;;;1.30;;
68196;SDS011;55019;49.382;11.358;2023-02-19T15:59:01;2.20;;;1.20;;
68196;SDS011;55019;49.382;11.358;2023-02-19T16:01:40;2.13;;;1.10;;
68196;SDS011;55019;49.382;11.358;2023-02-19T16:04:13;3.80;;;1.23;;
68196;SDS011;55019;49.382;11.358;2023-02-19T16:06:57;3.45;;;1.27;;
68196;SDS011;55019;49.382;11.358;2023-02-19T16:12:00;1.70;;;1.25;;
68196;SDS011;55019;49.382;11.358;2023-02-19T16:14:28;2.03;;;1.27;;
68196;SDS011;55019;49.382;11.358;2023-02-19T16:16:55;1.90;;;1.20;;
68196;SDS011;55019;49.382;11.358;2023-02-19T16:19:26;2.35;;;1.17;;
68196;SDS011;55019;49.382;11.358;2023-02-19T16:21:54;1.30;;;1.10;;
68196;SDS011;55019;49.382;11.358;2023-02-19T16:26:49;2.75;;;1.30;;
68196;SDS011;55019;49.382;11.358;2023-02-19T16:29:20;5.78;;;3.05;;
68196;SDS011;55019;49.382;11.358;2023-02-19T16:31:49;1.58;;;1.30;;
68196;SDS011;55019;49.382;11.358;2023-02-19T16:34:18;2.45;;;1.38;;
68196;SDS011;55019;49.382;11.358;2023-02-19T16:36:54;1.35;;;1.00;;
68196;SDS011;55019;49.382;11.358;2023-02-19T16:39:20;1.40;;;0.82;;
68196;SDS011;55019;49.382;11.358;2023-02-19T16:46:59;2.13;;;1.63;;
68196;SDS011;55019;49.382;11.358;2023-02-19T16:49:28;3.08;;;1.50;;
68196;SDS011;55019;49.382;11.358;2023-02-19T16:51:55;1.50;;;1.10;;
68196;SDS011;55019;49.382;11.358;2023-02-19T16:54:22;1.98;;;0.95;;
68196;SDS011;55019;49.382;11.358;2023-02-19T16:56:48;2.03;;;1.17;;
68196;SDS011;55019;49.382;11.358;2023-02-19T16:59:13;7.47;;;5.13;;
68196;SDS011;55019;49.382;11.358;2023-02-19T17:01:38;9.65;;;5.93;;
68196;SDS011;55019;49.382;11.358;2023-02-19T17:04:06;6.38;;;3.90;;
68196;SDS011;55019;49.382;11.358;2023-02-19T17:06:33;7.95;;;7.00;;
68196;SDS011;55019;49.382;11.358;2023-02-19T17:09:02;2.38;;;2.15;;
68196;SDS011;55019;49.382;11.358;2023-02-19T17:11:28;2.40;;;2.10;;
68196;SDS011;55019;49.382;11.358;2023-02-19T17:13:53;3.20;;;2.90;;